Time;durP1;ratioP1;P1;durP2;ratioP2;P2;SDS_P1;SDS_P2;PMS_P1;PMS_P2;Temp;Humidity;BMP_temperature;BMP_pressure;BME280_temperature;BME280_humidity;BME280_pressure;Samples;Min_cycle;Max_cycle;Signal;HPM_P1;HPM_P2
2021/03/16 00:01:44;;;;;;;;;;;19.70;55.30;;;;;;5052353;28;1275;-66
2021/03/16 00:04:09;;;;;;;;;;;19.70;55.30;;;;;;5052273;28;1712;-66
2021/03/16 00:06:35;;;;;;;;;;;19.70;55.30;;;;;;5052493;28;1898;-67
2021/03/16 00:09:00;;;;;;;;;;;19.60;55.20;;;;;;5051131;28;1066;-68
2021/03/16 00:11:26;;;;;;;;;;;19.70;55.30;;;;;;5052256;28;1388;-68
2021/03/16 00:13:51;;;;;;;;;;;19.70;55.30;;;;;;5052028;28;1405;-68
2021/03/16 00:16:17;;;;;;;;;;;19.70;55.40;;;;;;5053748;28;1511;-68
2021/03/16 00:18:42;;;;;;;;;;;19.70;55.40;;;;;;5038039;28;1381;-68
2021/03/16 00:21:08;;;;;;;;;;;19.60;55.30;;;;;;5056091;28;1614;-69
2021/03/16 00:23:33;;;;;;;;;;;19.60;55.30;;;;;;5055600;28;1344;-68
2021/03/16 00:25:59;;;;;;;;;;;19.60;55.40;;;;;;5056053;28;1368;-68
2021/03/16 00:28:24;;;;;;;;;;;19.60;55.40;;;;;;5051982;28;1907;-69
2021/03/16 00:30:49;;;;;;;;;;;19.60;55.40;;;;;;5045698;28;1210;-68
2021/03/16 00:33:15;;;;;;;;;;;19.60;55.40;;;;;;5055590;28;1395;-68
2021/03/16 00:35:40;;;;;;;;;;;19.60;55.40;;;;;;5055442;28;1174;-68
2021/03/16 00:38:06;;;;;;;;;;;19.60;55.40;;;;;;5036870;28;1435;-68
2021/03/16 00:40:31;;;;;;;;;;;19.60;55.40;;;;;;5055632;28;1420;-68
2021/03/16 00:42:57;;;;;;;;;;;19.60;55.50;;;;;;5037738;28;1398;-68
2021/03/16 00:45:22;;;;;;;;;;;19.60;55.50;;;;;;5055673;28;1406;-68
2021/03/16 00:47:47;;;;;;;;;;;19.60;55.50;;;;;;5054127;28;1947;-68
2021/03/16 00:50:13;;;;;;;;;;;19.60;55.50;;;;;;5055480;28;820;-68
2021/03/16 00:52:38;;;;;;;;;;;19.60;55.50;;;;;;5054145;28;1673;-67
2021/03/16 00:55:05;;;;;;;;;;;19.60;55.50;;;;;;5037500;28;1664;-67
2021/03/16 00:57:30;;;;;;;;;;;19.50;55.50;;;;;;5054236;28;1469;-68
2021/03/16 00:59:56;;;;;;;;;;;19.50;55.50;;;;;;5037694;28;1673;-69
2021/03/16 01:02:21;;;;;;;;;;;19.50;55.50;;;;;;5054993;28;1506;-68
2021/03/16 01:04:47;;;;;;;;;;;19.50;55.50;;;;;;5055290;28;1167;-68
2021/03/16 01:07:12;;;;;;;;;;;19.50;55.60;;;;;;5054189;28;1949;-69
2021/03/16 01:09:37;;;;;;;;;;;19.50;55.60;;;;;;5054982;28;1568;-69
2021/03/16 01:12:04;;;;;;;;;;;19.50;55.60;;;;;;5053805;28;1600;-68
2021/03/16 01:14:29;;;;;;;;;;;19.50;55.60;;;;;;5054794;28;1581;-68
2021/03/16 01:16:55;;;;;;;;;;;19.50;55.60;;;;;;5054271;28;1463;-67
2021/03/16 01:19:20;;;;;;;;;;;19.50;55.60;;;;;;5054247;28;1072;-68
2021/03/16 01:21:45;;;;;;;;;;;19.50;55.60;;;;;;5036893;28;1711;-67
2021/03/16 01:24:11;;;;;;;;;;;19.50;55.60;;;;;;5055092;28;1614;-67
2021/03/16 01:26:36;;;;;;;;;;;19.50;55.60;;;;;;5054418;28;1945;-68
2021/03/16 01:29:04;;;;;;;;;;;19.50;55.60;;;;;;5053525;28;1432;-67
2021/03/16 01:31:29;;;;;;;;;;;19.50;55.60;;;;;;5054763;28;1681;-67
2021/03/16 01:33:54;;;;;;;;;;;19.50;55.70;;;;;;5054423;28;1696;-66
2021/03/16 01:36:20;;;;;;;;;;;19.50;55.70;;;;;;5054566;28;1476;-67
2021/03/16 01:38:45;;;;;;;;;;;19.50;55.70;;;;;;5035723;28;1707;-67
2021/03/16 01:41:11;;;;;;;;;;;19.50;55.70;;;;;;5054807;28;1472;-69
2021/03/16 01:43:36;;;;;;;;;;;19.50;55.70;;;;;;5054208;28;1363;-69
2021/03/16 01:46:02;;;;;;;;;;;19.50;55.70;;;;;;5054452;28;1692;-68
2021/03/16 01:48:31;;;;;;;;;;;19.50;55.70;;;;;;5053760;28;1973;-69
2021/03/16 01:50:56;;;;;;;;;;;19.40;55.70;;;;;;5054575;28;1377;-68
2021/03/16 01:53:22;;;;;;;;;;;19.50;55.70;;;;;;5036223;28;1512;-69
2021/03/16 01:55:49;;;;;;;;;;;19.40;55.70;;;;;;5036696;28;1467;-68
2021/03/16 01:58:14;;;;;;;;;;;19.50;55.80;;;;;;5035959;28;1674;-68
2021/03/16 02:00:40;;;;;;;;;;;19.40;55.70;;;;;;5054318;28;1431;-67
2021/03/16 02:03:09;;;;;;;;;;;19.40;55.70;;;;;;5036230;28;1855;-67
2021/03/16 02:05:34;;;;;;;;;;;19.40;55.70;;;;;;5036186;28;1366;-68
2021/03/16 02:08:03;;;;;;;;;;;19.40;55.70;;;;;;5053342;28;1906;-68
2021/03/16 02:10:51;;;;;;;;;;;19.40;55.80;;;;;;5053781;28;1687;-68
2021/03/16 02:13:20;;;;;;;;;;;19.40;55.80;;;;;;5016270;28;1770;-67
2021/03/16 02:15:47;;;;;;;;;;;19.40;55.80;;;;;;5048152;28;1398;-67
2021/03/16 02:18:14;;;;;;;;;;;19.40;55.80;;;;;;5045273;28;1608;-67
2021/03/16 02:20:48;;;;;;;;;;;19.40;55.80;;;;;;5053951;28;1438;-66
2021/03/16 02:23:15;;;;;;;;;;;19.40;55.80;;;;;;5036056;28;1734;-66
2021/03/16 02:25:46;;;;;;;;;;;19.40;55.80;;;;;;5035506;28;1651;-67
2021/03/16 02:28:29;;;;;;;;;;;19.40;55.80;;;;;;5052926;28;1963;-67
2021/03/16 02:30:55;;;;;;;;;;;19.40;55.80;;;;;;5035837;28;1385;-67
2021/03/16 02:33:21;;;;;;;;;;;19.30;55.80;;;;;;5053428;28;1584;-67
2021/03/16 02:35:47;;;;;;;;;;;19.40;55.90;;;;;;5035354;28;1600;-66
2021/03/16 02:38:12;;;;;;;;;;;19.30;55.80;;;;;;5035239;28;1597;-67
2021/03/16 02:40:38;;;;;;;;;;;19.40;55.80;;;;;;5034229;28;1243;-67
2021/03/16 02:43:03;;;;;;;;;;;19.40;55.80;;;;;;5035659;28;1705;-67
2021/03/16 02:45:30;;;;;;;;;;;19.40;55.80;;;;;;5053451;28;1376;-66
2021/03/16 02:47:55;;;;;;;;;;;19.40;55.80;;;;;;5034576;28;1960;-67
2021/03/16 02:50:20;;;;;;;;;;;19.40;55.80;;;;;;5035482;28;1662;-67
2021/03/16 02:52:46;;;;;;;;;;;19.40;55.80;;;;;;5035146;28;1607;-68
2021/03/16 02:55:11;;;;;;;;;;;19.40;55.70;;;;;;5052817;28;1037;-67
2021/03/16 02:57:37;;;;;;;;;;;19.40;55.70;;;;;;5034232;28;1638;-67
2021/03/16 03:00:03;;;;;;;;;;;19.40;55.70;;;;;;5035561;28;1648;-67
2021/03/16 03:02:28;;;;;;;;;;;19.40;55.60;;;;;;5052850;28;1651;-68
2021/03/16 03:04:54;;;;;;;;;;;19.40;55.60;;;;;;5052642;28;1259;-67
2021/03/16 03:07:19;;;;;;;;;;;19.50;55.60;;;;;;5033877;28;1957;-67
2021/03/16 03:09:45;;;;;;;;;;;19.50;55.60;;;;;;5035022;28;1555;-67
2021/03/16 03:12:10;;;;;;;;;;;19.50;55.60;;;;;;5051217;28;1426;-67
2021/03/16 03:14:36;;;;;;;;;;;19.50;55.60;;;;;;5052970;28;1174;-67
2021/03/16 03:17:02;;;;;;;;;;;19.50;55.60;;;;;;5051819;28;1453;-67
2021/03/16 03:19:28;;;;;;;;;;;19.50;55.50;;;;;;5050115;28;1266;-68
2021/03/16 03:22:09;;;;;;;;;;;19.50;55.50;;;;;;5043677;28;1388;-69
2021/03/16 03:24:36;;;;;;;;;;;19.50;55.50;;;;;;5026742;28;1213;-68
2021/03/16 03:27:14;;;;;;;;;;;19.40;55.50;;;;;;5032317;28;1914;-67
2021/03/16 03:29:40;;;;;;;;;;;19.50;55.50;;;;;;5043723;28;1212;-68
2021/03/16 03:32:05;;;;;;;;;;;19.50;55.50;;;;;;5043088;28;1389;-68
2021/03/16 03:34:31;;;;;;;;;;;19.50;55.50;;;;;;5042405;28;1360;-67
2021/03/16 03:36:57;;;;;;;;;;;19.50;55.50;;;;;;5025534;28;1694;-68
2021/03/16 03:39:23;;;;;;;;;;;19.50;55.40;;;;;;5043618;28;1293;-67
2021/03/16 03:41:51;;;;;;;;;;;19.50;55.30;;;;;;5026815;28;1410;-68
2021/03/16 03:44:17;;;;;;;;;;;19.60;55.30;;;;;;5041893;28;1261;-68
2021/03/16 03:46:43;;;;;;;;;;;19.70;55.20;;;;;;5045949;28;1962;-68
2021/03/16 03:49:08;;;;;;;;;;;19.80;55.10;;;;;;5032183;28;1220;-67
2021/03/16 03:51:34;;;;;;;;;;;19.90;54.80;;;;;;5038264;28;1283;-67
2021/03/16 03:53:59;;;;;;;;;;;20.00;54.60;;;;;;5058834;28;1335;-67
2021/03/16 03:56:24;;;;;;;;;;;20.10;54.40;;;;;;5027728;28;1080;-68
2021/03/16 03:58:50;;;;;;;;;;;20.20;54.20;;;;;;5039970;28;1134;-67
2021/03/16 04:01:15;;;;;;;;;;;20.30;54.00;;;;;;5058992;28;1076;-67
2021/03/16 04:03:41;;;;;;;;;;;20.40;53.80;;;;;;5058080;28;1280;-68
2021/03/16 04:06:06;;;;;;;;;;;20.40;53.60;;;;;;5058494;28;1317;-67
2021/03/16 04:08:31;;;;;;;;;;;20.50;53.40;;;;;;5040597;28;1977;-67
2021/03/16 04:10:58;;;;;;;;;;;20.60;53.30;;;;;;5040272;28;1341;-67
2021/03/16 04:13:24;;;;;;;;;;;20.60;53.10;;;;;;5058668;28;1210;-67
2021/03/16 04:15:49;;;;;;;;;;;20.70;53.00;;;;;;5040740;28;1391;-67
2021/03/16 04:18:14;;;;;;;;;;;20.80;52.90;;;;;;5057590;28;1131;-67
2021/03/16 04:20:41;;;;;;;;;;;20.80;52.80;;;;;;5058613;28;1146;-67
2021/03/16 04:23:06;;;;;;;;;;;20.80;52.70;;;;;;5040324;28;1292;-67
2021/03/16 04:25:32;;;;;;;;;;;20.90;52.70;;;;;;5040623;28;1133;-67
2021/03/16 04:27:58;;;;;;;;;;;20.90;52.60;;;;;;5053341;28;1961;-67
2021/03/16 04:30:23;;;;;;;;;;;21.00;52.50;;;;;;5057617;28;1115;-67
2021/03/16 04:32:48;;;;;;;;;;;21.00;52.50;;;;;;5057813;28;1211;-68
2021/03/16 04:35:14;;;;;;;;;;;21.00;52.40;;;;;;5058134;28;1370;-67
2021/03/16 04:37:40;;;;;;;;;;;21.10;52.40;;;;;;5057943;28;1068;-67
2021/03/16 04:40:06;;;;;;;;;;;21.10;52.30;;;;;;5058586;28;1175;-67
2021/03/16 04:42:32;;;;;;;;;;;21.10;52.30;;;;;;5040258;28;1357;-67
2021/03/16 04:44:57;;;;;;;;;;;21.10;52.20;;;;;;5058453;28;1291;-68
2021/03/16 04:47:22;;;;;;;;;;;21.10;52.20;;;;;;5057034;28;1926;-68
2021/03/16 04:49:48;;;;;;;;;;;21.20;52.20;;;;;;5058099;28;1109;-67
2021/03/16 04:52:13;;;;;;;;;;;21.20;52.20;;;;;;5058326;28;1343;-67
2021/03/16 04:54:39;;;;;;;;;;;21.20;52.10;;;;;;5058387;28;1174;-67
2021/03/16 04:57:04;;;;;;;;;;;21.20;52.10;;;;;;5057874;28;1276;-68
2021/03/16 04:59:30;;;;;;;;;;;21.20;52.10;;;;;;5058379;28;1123;-67
2021/03/16 05:01:55;;;;;;;;;;;21.20;52.10;;;;;;5057217;28;1382;-70
2021/03/16 05:04:20;;;;;;;;;;;21.20;52.10;;;;;;5036724;28;1328;-70
2021/03/16 05:06:46;;;;;;;;;;;21.20;52.10;;;;;;5054955;28;2028;-69
2021/03/16 05:09:12;;;;;;;;;;;21.20;52.10;;;;;;5054078;28;1048;-69
2021/03/16 05:11:38;;;;;;;;;;;21.20;52.10;;;;;;5055166;28;1266;-69
2021/03/16 05:14:03;;;;;;;;;;;21.20;52.10;;;;;;5054862;28;1404;-69
2021/03/16 05:16:31;;;;;;;;;;;21.20;52.20;;;;;;5053499;28;1190;-69
2021/03/16 05:18:56;;;;;;;;;;;21.20;52.20;;;;;;5053980;28;1136;-68
2021/03/16 05:21:21;;;;;;;;;;;21.20;52.20;;;;;;5053669;28;993;-69
2021/03/16 05:23:47;;;;;;;;;;;21.20;52.20;;;;;;5053815;28;1279;-67
2021/03/16 05:26:12;;;;;;;;;;;21.20;52.30;;;;;;5054848;28;1951;-68
2021/03/16 05:28:38;;;;;;;;;;;21.20;52.30;;;;;;5036124;28;1368;-67
2021/03/16 05:31:03;;;;;;;;;;;21.10;52.30;;;;;;5054174;28;1068;-67
2021/03/16 05:33:28;;;;;;;;;;;21.10;52.40;;;;;;5054607;28;1372;-69
2021/03/16 05:35:54;;;;;;;;;;;21.10;52.50;;;;;;5037189;28;1334;-69
2021/03/16 05:38:19;;;;;;;;;;;21.10;52.50;;;;;;5053657;28;1280;-69
2021/03/16 05:40:45;;;;;;;;;;;21.10;52.50;;;;;;5054509;28;1342;-69
2021/03/16 05:43:10;;;;;;;;;;;21.10;52.60;;;;;;5053793;28;1293;-70
2021/03/16 05:45:37;;;;;;;;;;;21.00;53.20;;;;;;5054019;28;1295;-69
2021/03/16 05:48:02;;;;;;;;;;;21.00;52.60;;;;;;5053077;28;2032;-70
2021/03/16 05:50:28;;;;;;;;;;;21.00;52.70;;;;;;5054472;28;1194;-69
2021/03/16 05:52:54;;;;;;;;;;;21.00;52.80;;;;;;5053965;28;1334;-69
2021/03/16 05:55:19;;;;;;;;;;;21.00;52.80;;;;;;5053815;28;1060;-69
2021/03/16 05:57:48;;;;;;;;;;;21.00;52.80;;;;;;5035622;28;1091;-69
2021/03/16 06:00:13;;;;;;;;;;;21.00;53.40;;;;;;5019095;28;1073;-67
2021/03/16 06:02:39;;;;;;;;;;;20.90;52.80;;;;;;5049727;28;1353;-67
2021/03/16 06:05:05;;;;;;;;;;;21.00;52.90;;;;;;5044967;28;1273;-67
2021/03/16 06:07:30;;;;;;;;;;;21.00;52.80;;;;;;5035160;28;1898;-67
2021/03/16 06:09:55;;;;;;;;;;;21.00;52.80;;;;;;5035904;28;1234;-68
2021/03/16 06:12:30;;;;;;;;;;;21.00;52.80;;;;;;5053554;28;1201;-68
2021/03/16 06:14:56;;;;;;;;;;;21.00;52.70;;;;;;5053362;28;1112;-69
2021/03/16 06:17:21;;;;;;;;;;;21.10;52.70;;;;;;5040352;28;1049;-67
2021/03/16 06:19:46;;;;;;;;;;;21.10;52.70;;;;;;5035843;28;1359;-67
2021/03/16 06:22:15;;;;;;;;;;;21.10;52.60;;;;;;5035933;28;1390;-68
2021/03/16 06:24:45;;;;;;;;;;;21.10;52.50;;;;;;5053326;28;1124;-68
2021/03/16 06:27:39;;;;;;;;;;;21.10;52.50;;;;;;5018802;28;1902;-69
2021/03/16 06:30:05;;;;;;;;;;;21.10;52.50;;;;;;5031388;28;1314;-67
2021/03/16 06:32:34;;;;;;;;;;;21.10;52.50;;;;;;5053511;28;1345;-69
2021/03/16 06:35:00;;;;;;;;;;;21.20;52.50;;;;;;5053013;28;1167;-70
2021/03/16 06:37:26;;;;;;;;;;;21.10;52.50;;;;;;5035017;28;1316;-69
2021/03/16 06:39:54;;;;;;;;;;;21.10;52.50;;;;;;5053086;28;1076;-69
2021/03/16 06:42:20;;;;;;;;;;;21.10;52.50;;;;;;5053243;28;1297;-68
2021/03/16 06:44:45;;;;;;;;;;;21.10;52.60;;;;;;5053114;28;1168;-67
2021/03/16 06:47:15;;;;;;;;;;;21.10;52.60;;;;;;5018042;28;1914;-68
2021/03/16 06:49:40;;;;;;;;;;;21.10;52.60;;;;;;5052723;28;1377;-68
2021/03/16 06:52:09;;;;;;;;;;;21.10;52.60;;;;;;5052938;28;1440;-67
2021/03/16 06:54:34;;;;;;;;;;;21.10;52.70;;;;;;5052810;28;1155;-68
2021/03/16 06:57:00;;;;;;;;;;;21.10;52.70;;;;;;5035355;28;2019;-68
2021/03/16 06:59:30;;;;;;;;;;;21.00;52.70;;;;;;5035208;28;1077;-68
2021/03/16 07:01:55;;;;;;;;;;;21.00;52.80;;;;;;5035219;28;1265;-67
2021/03/16 07:04:21;;;;;;;;;;;21.00;52.80;;;;;;5052618;28;1335;-70
2021/03/16 07:06:47;;;;;;;;;;;21.00;52.90;;;;;;5034433;28;1901;-70
2021/03/16 07:09:13;;;;;;;;;;;21.00;52.90;;;;;;5034260;28;1135;-70
2021/03/16 07:11:39;;;;;;;;;;;21.00;52.90;;;;;;5051447;28;1139;-70
2021/03/16 07:14:05;;;;;;;;;;;20.90;52.90;;;;;;5046590;28;2006;-68
2021/03/16 07:16:30;;;;;;;;;;;20.90;52.90;;;;;;5037457;28;2342;-69
2021/03/16 07:18:56;;;;;;;;;;;20.90;53.00;;;;;;5045218;28;1345;-69
2021/03/16 07:21:25;;;;;;;;;;;20.90;53.00;;;;;;5033813;28;1327;-68
2021/03/16 07:23:51;;;;;;;;;;;20.90;53.10;;;;;;5033815;28;1362;-68
2021/03/16 07:26:17;;;;;;;;;;;20.90;53.10;;;;;;5050865;28;1965;-68
2021/03/16 07:28:45;;;;;;;;;;;20.80;53.10;;;;;;5049809;28;1395;-68
2021/03/16 07:31:10;;;;;;;;;;;20.80;53.10;;;;;;5050872;28;1639;-67
2021/03/16 07:33:36;;;;;;;;;;;20.80;53.20;;;;;;5033363;28;1393;-67
2021/03/16 07:36:01;;;;;;;;;;;20.80;53.20;;;;;;5052367;28;1302;-66
2021/03/16 07:38:27;;;;;;;;;;;20.80;53.20;;;;;;5050496;28;1364;-66
2021/03/16 07:40:52;;;;;;;;;;;20.80;53.30;;;;;;5051355;28;1299;-67
2021/03/16 07:43:18;;;;;;;;;;;20.80;53.30;;;;;;5050549;28;1384;-67
2021/03/16 07:45:43;;;;;;;;;;;20.80;53.40;;;;;;5051418;28;1260;-67
2021/03/16 07:48:12;;;;;;;;;;;20.70;53.40;;;;;;5049816;28;1938;-68
2021/03/16 07:50:38;;;;;;;;;;;20.70;53.40;;;;;;5050398;28;1324;-68
2021/03/16 07:53:03;;;;;;;;;;;20.70;53.40;;;;;;5051164;28;1335;-69
2021/03/16 07:55:29;;;;;;;;;;;20.70;53.50;;;;;;5051802;28;1076;-70
2021/03/16 07:58:07;;;;;;;;;;;20.70;53.50;;;;;;5033929;28;1352;-70
2021/03/16 08:00:33;;;;;;;;;;;20.70;53.50;;;;;;5034239;28;1005;-70
2021/03/16 08:02:59;;;;;;;;;;;20.60;53.50;;;;;;5051943;28;1493;-70
2021/03/16 08:05:25;;;;;;;;;;;20.60;53.60;;;;;;5052087;28;1670;-70
2021/03/16 08:07:50;;;;;;;;;;;20.60;53.70;;;;;;5051555;28;1902;-69
2021/03/16 08:10:25;;;;;;;;;;;20.60;53.70;;;;;;5052043;28;1226;-69
2021/03/16 08:13:03;;;;;;;;;;;20.60;53.70;;;;;;5051008;28;1638;-70
2021/03/16 08:15:38;;;;;;;;;;;20.60;53.70;;;;;;5051364;28;1067;-69
2021/03/16 08:18:04;;;;;;;;;;;20.60;53.80;;;;;;5049617;28;1257;-70
2021/03/16 08:20:29;;;;;;;;;;;20.60;53.80;;;;;;5052033;28;1072;-70
2021/03/16 08:23:07;;;;;;;;;;;20.50;53.80;;;;;;5052017;28;1375;-69
2021/03/16 08:25:33;;;;;;;;;;;20.50;53.80;;;;;;5050605;28;1406;-70
2021/03/16 08:27:59;;;;;;;;;;;20.50;53.90;;;;;;5045784;28;1957;-70
2021/03/16 08:30:25;;;;;;;;;;;20.50;53.90;;;;;;5033531;28;1250;-70
2021/03/16 08:32:50;;;;;;;;;;;20.50;53.90;;;;;;5051620;28;1367;-70
2021/03/16 08:35:17;;;;;;;;;;;20.50;53.90;;;;;;5051771;28;1428;-69
2021/03/16 08:37:42;;;;;;;;;;;20.40;53.90;;;;;;5034885;28;1388;-70
2021/03/16 08:40:08;;;;;;;;;;;20.50;54.00;;;;;;5055682;28;1368;-70
2021/03/16 08:42:33;;;;;;;;;;;20.50;54.00;;;;;;5037497;28;1287;-69
2021/03/16 08:44:59;;;;;;;;;;;20.40;54.00;;;;;;5055116;28;1316;-70
2021/03/16 08:47:25;;;;;;;;;;;20.40;54.00;;;;;;5054287;28;1918;-68
2021/03/16 08:49:51;;;;;;;;;;;20.40;54.10;;;;;;5037997;28;1396;-71
2021/03/16 08:52:20;;;;;;;;;;;20.40;54.10;;;;;;5037668;28;1342;-69
2021/03/16 08:54:46;;;;;;;;;;;20.40;54.10;;;;;;5054902;28;1064;-70
2021/03/16 08:57:18;;;;;;;;;;;20.40;54.10;;;;;;5036622;28;1364;-69
2021/03/16 08:59:47;;;;;;;;;;;20.40;54.20;;;;;;5055042;28;1089;-70
2021/03/16 09:02:19;;;;;;;;;;;20.40;54.20;;;;;;5054908;28;1361;-70
2021/03/16 09:04:45;;;;;;;;;;;20.40;54.20;;;;;;5055492;28;1399;-69
2021/03/16 09:07:10;;;;;;;;;;;20.30;54.20;;;;;;5036749;28;2064;-69
2021/03/16 09:09:36;;;;;;;;;;;20.30;54.30;;;;;;5037090;28;1293;-70
2021/03/16 09:12:01;;;;;;;;;;;20.30;54.30;;;;;;5054922;28;1339;-70
2021/03/16 09:14:27;;;;;;;;;;;20.30;54.30;;;;;;5054635;28;1291;-70
2021/03/16 09:16:53;;;;;;;;;;;20.30;54.30;;;;;;5053026;28;1230;-70
2021/03/16 09:19:20;;;;;;;;;;;20.30;54.30;;;;;;5052915;28;1361;-69
2021/03/16 09:21:51;;;;;;;;;;;20.30;54.30;;;;;;5054481;28;1369;-69
2021/03/16 09:24:20;;;;;;;;;;;20.30;54.30;;;;;;5054700;28;1284;-70
2021/03/16 09:26:59;;;;;;;;;;;20.30;54.40;;;;;;5053307;28;1969;-69
2021/03/16 09:29:25;;;;;;;;;;;20.30;54.40;;;;;;5048929;28;1071;-69
2021/03/16 09:31:50;;;;;;;;;;;20.30;54.40;;;;;;5036569;28;1354;-70
2021/03/16 09:34:16;;;;;;;;;;;20.20;54.40;;;;;;5054519;28;1417;-68
2021/03/16 09:36:41;;;;;;;;;;;20.20;54.40;;;;;;5054225;28;1034;-70
2021/03/16 09:39:06;;;;;;;;;;;20.20;54.40;;;;;;5053333;28;1307;-70
2021/03/16 09:41:32;;;;;;;;;;;20.20;54.50;;;;;;5036714;28;1341;-70
2021/03/16 09:43:57;;;;;;;;;;;20.20;54.50;;;;;;5054224;28;1299;-70
2021/03/16 09:46:23;;;;;;;;;;;20.20;54.50;;;;;;5054487;28;1963;-70
2021/03/16 09:48:49;;;;;;;;;;;20.20;54.50;;;;;;5053035;28;1359;-70
2021/03/16 09:51:15;;;;;;;;;;;20.20;54.60;;;;;;5036565;28;1347;-68
2021/03/16 09:53:45;;;;;;;;;;;20.20;54.60;;;;;;5054489;28;1346;-68
2021/03/16 09:56:10;;;;;;;;;;;20.10;54.60;;;;;;5054538;28;1372;-67
2021/03/16 09:58:36;;;;;;;;;;;20.10;54.60;;;;;;5035249;28;1324;-70
2021/03/16 10:01:02;;;;;;;;;;;20.10;54.60;;;;;;5053921;28;1347;-69
2021/03/16 10:03:28;;;;;;;;;;;20.10;54.60;;;;;;5035851;28;1247;-71
2021/03/16 10:06:05;;;;;;;;;;;20.10;54.60;;;;;;5053872;28;1288;-68
2021/03/16 10:08:31;;;;;;;;;;;20.10;54.70;;;;;;5053390;28;1956;-70
2021/03/16 10:10:56;;;;;;;;;;;20.10;54.70;;;;;;5054054;28;1359;-68
2021/03/16 10:13:34;;;;;;;;;;;20.10;54.70;;;;;;5052360;28;1337;-68
2021/03/16 10:16:09;;;;;;;;;;;20.10;54.70;;;;;;5053789;28;1099;-68
2021/03/16 10:18:38;;;;;;;;;;;20.10;54.70;;;;;;5034623;28;1265;-68
2021/03/16 10:21:04;;;;;;;;;;;20.10;54.80;;;;;;5036208;28;1351;-69
2021/03/16 10:23:30;;;;;;;;;;;20.10;54.80;;;;;;5053708;28;1279;-69
2021/03/16 10:25:56;;;;;;;;;;;20.10;54.80;;;;;;5036204;28;1087;-70
2021/03/16 10:28:34;;;;;;;;;;;20.10;54.80;;;;;;5053474;28;1949;-69
2021/03/16 10:31:09;;;;;;;;;;;20.10;54.90;;;;;;5035200;28;1294;-69
2021/03/16 10:33:34;;;;;;;;;;;20.00;54.80;;;;;;5053294;28;1368;-69
2021/03/16 10:36:00;;;;;;;;;;;20.00;54.80;;;;;;5018883;28;1309;-69
2021/03/16 10:38:28;;;;;;;;;;;20.00;54.80;;;;;;5035138;28;1349;-69
2021/03/16 10:40:54;;;;;;;;;;;20.00;54.80;;;;;;5052957;28;1257;-69
2021/03/16 10:43:19;;;;;;;;;;;20.00;54.80;;;;;;5053283;28;1294;-69
2021/03/16 10:45:45;;;;;;;;;;;20.00;54.80;;;;;;5053200;28;1293;-70
2021/03/16 10:48:10;;;;;;;;;;;20.00;54.90;;;;;;5052682;28;1905;-69
2021/03/16 10:50:35;;;;;;;;;;;20.00;54.90;;;;;;5053399;28;1262;-69
2021/03/16 10:53:01;;;;;;;;;;;20.00;54.90;;;;;;5053475;28;1332;-69
2021/03/16 10:55:26;;;;;;;;;;;20.00;54.90;;;;;;5035332;28;1641;-69
2021/03/16 10:57:52;;;;;;;;;;;20.00;54.90;;;;;;5052475;28;1335;-69
2021/03/16 11:00:17;;;;;;;;;;;20.00;54.90;;;;;;5052431;28;1250;-69
2021/03/16 11:02:44;;;;;;;;;;;20.00;54.90;;;;;;5052407;28;1283;-69
2021/03/16 11:05:09;;;;;;;;;;;20.00;54.90;;;;;;5035057;28;1335;-69
2021/03/16 11:07:35;;;;;;;;;;;20.00;54.90;;;;;;5051733;28;1902;-69
2021/03/16 11:10:00;;;;;;;;;;;20.00;55.10;;;;;;5052638;28;1174;-69
2021/03/16 11:12:25;;;;;;;;;;;20.00;55.20;;;;;;5053254;28;1352;-69
2021/03/16 11:14:51;;;;;;;;;;;20.00;55.10;;;;;;5052495;28;1084;-68
2021/03/16 11:17:16;;;;;;;;;;;20.00;55.10;;;;;;5051743;28;1127;-69
2021/03/16 11:19:42;;;;;;;;;;;20.00;55.70;;;;;;5052791;28;1222;-70
2021/03/16 11:22:07;;;;;;;;;;;20.00;55.10;;;;;;5034741;28;1388;-72
2021/03/16 11:24:33;;;;;;;;;;;20.00;55.10;;;;;;5052314;28;1259;-71
2021/03/16 11:26:58;;;;;;;;;;;20.00;55.00;;;;;;5049644;28;1957;-71
2021/03/16 11:29:24;;;;;;;;;;;20.00;55.00;;;;;;5033229;28;1328;-70
2021/03/16 11:31:49;;;;;;;;;;;20.00;55.10;;;;;;5047214;28;1368;-70
2021/03/16 11:34:14;;;;;;;;;;;20.00;55.10;;;;;;5100841;22;2025;-67
2021/03/16 11:36:40;;;;;;;;;;;20.00;55.10;;;;;;5092641;28;1066;-67
2021/03/16 11:39:05;;;;;;;;;;;20.00;55.10;;;;;;5091988;28;1257;-64
2021/03/16 11:41:31;;;;;;;;;;;19.90;55.00;;;;;;5093179;28;1192;-64
2021/03/16 11:43:56;;;;;;;;;;;19.90;55.00;;;;;;5092437;28;1273;-62
2021/03/16 11:46:22;;;;;;;;;;;19.90;55.10;;;;;;5092808;28;1371;-63
2021/03/16 11:48:47;;;;;;;;;;;19.90;55.10;;;;;;5085809;28;1898;-63
2021/03/16 11:51:12;;;;;;;;;;;19.90;55.10;;;;;;5088708;28;1335;-62
2021/03/16 11:53:38;;;;;;;;;;;19.90;55.10;;;;;;5070516;28;1890;-63
2021/03/16 11:56:04;;;;;;;;;;;19.90;55.10;;;;;;5099388;28;1656;-64
2021/03/16 11:58:29;;;;;;;;;;;19.90;55.10;;;;;;5086165;28;1340;-65
2021/03/16 12:00:55;;;;;;;;;;;19.90;55.10;;;;;;5075230;28;1272;-62
2021/03/16 12:03:20;;;;;;;;;;;19.90;55.10;;;;;;5071928;28;1635;-62
2021/03/16 12:05:46;;;;;;;;;;;19.90;55.10;;;;;;5071983;28;1300;-62
2021/03/16 12:08:11;;;;;;;;;;;19.90;55.20;;;;;;5071362;28;1902;-62
2021/03/16 12:10:36;;;;;;;;;;;19.80;55.10;;;;;;5071575;28;1285;-62
2021/03/16 12:13:02;;;;;;;;;;;19.80;55.20;;;;;;5074553;28;1365;-64
2021/03/16 12:15:27;;;;;;;;;;;19.90;55.20;;;;;;5074883;28;1406;-67
2021/03/16 12:17:53;;;;;;;;;;;19.80;55.20;;;;;;5075415;28;1259;-66
2021/03/16 12:20:18;;;;;;;;;;;19.80;55.20;;;;;;5076024;28;1521;-65
2021/03/16 12:22:44;;;;;;;;;;;19.90;55.30;;;;;;5075413;28;1386;-66
2021/03/16 12:25:09;;;;;;;;;;;19.80;55.20;;;;;;5074273;28;1397;-66
2021/03/16 12:27:35;;;;;;;;;;;19.90;55.30;;;;;;5063705;28;1941;-66
2021/03/16 12:30:00;;;;;;;;;;;19.80;55.30;;;;;;5075451;28;1502;-65
2021/03/16 12:32:26;;;;;;;;;;;19.80;55.20;;;;;;5095085;28;1435;-66
2021/03/16 12:34:51;;;;;;;;;;;19.80;55.20;;;;;;5093658;28;1114;-66
2021/03/16 12:37:17;;;;;;;;;;;19.80;55.20;;;;;;5094476;28;1303;-66
2021/03/16 12:39:43;;;;;;;;;;;19.80;55.20;;;;;;5095498;28;1238;-65
2021/03/16 12:42:08;;;;;;;;;;;19.80;55.20;;;;;;5094593;28;1332;-65
2021/03/16 12:44:33;;;;;;;;;;;19.80;55.20;;;;;;5094226;28;1317;-65
2021/03/16 12:46:59;;;;;;;;;;;19.80;55.20;;;;;;5094858;28;1913;-65
2021/03/16 12:49:25;;;;;;;;;;;19.80;55.20;;;;;;5093807;28;1373;-65
2021/03/16 12:51:50;;;;;;;;;;;19.90;55.20;;;;;;5094617;28;1435;-65
2021/03/16 12:54:15;;;;;;;;;;;19.90;55.20;;;;;;5092912;28;1333;-65
2021/03/16 12:56:41;;;;;;;;;;;19.80;55.20;;;;;;5074819;28;1308;-65
2021/03/16 12:59:06;;;;;;;;;;;19.80;55.20;;;;;;5071970;28;1417;-66
2021/03/16 13:01:32;;;;;;;;;;;19.90;55.20;;;;;;5073765;28;1324;-65
2021/03/16 13:03:57;;;;;;;;;;;19.90;55.10;;;;;;5074074;28;1276;-66
2021/03/16 13:06:23;;;;;;;;;;;19.90;55.10;;;;;;5074300;28;1321;-66
2021/03/16 13:08:48;;;;;;;;;;;19.90;55.00;;;;;;5074676;28;1910;-63
2021/03/16 13:11:14;;;;;;;;;;;20.00;54.90;;;;;;5074703;28;1293;-65
2021/03/16 13:13:39;;;;;;;;;;;20.10;54.80;;;;;;5074579;28;1394;-64
2021/03/16 13:16:04;;;;;;;;;;;20.20;55.30;;;;;;5074748;28;1237;-63
2021/03/16 13:18:30;;;;;;;;;;;20.20;54.40;;;;;;5075128;28;1273;-63
2021/03/16 13:20:55;;;;;;;;;;;20.30;54.30;;;;;;5071490;28;1801;-64
2021/03/16 13:23:21;;;;;;;;;;;20.40;54.10;;;;;;5069731;28;1278;-63
2021/03/16 13:25:46;;;;;;;;;;;20.50;53.90;;;;;;5074348;28;1157;-63
2021/03/16 13:28:12;;;;;;;;;;;20.50;53.80;;;;;;5073830;28;1957;-63
2021/03/16 13:30:37;;;;;;;;;;;20.50;53.60;;;;;;5074598;28;1902;-64
2021/03/16 13:33:02;;;;;;;;;;;20.60;53.60;;;;;;5074116;28;1211;-63
2021/03/16 13:35:28;;;;;;;;;;;20.60;53.50;;;;;;5073327;28;1507;-63
2021/03/16 13:37:56;;;;;;;;;;;20.60;53.40;;;;;;5073033;28;1366;-63
2021/03/16 13:40:22;;;;;;;;;;;20.60;53.40;;;;;;5074529;28;1285;-63
2021/03/16 13:42:47;;;;;;;;;;;20.60;53.40;;;;;;5073942;28;1353;-63
2021/03/16 13:45:13;;;;;;;;;;;20.70;53.40;;;;;;5074531;28;1301;-64
2021/03/16 13:47:38;;;;;;;;;;;20.70;53.40;;;;;;5074004;28;1898;-63
2021/03/16 13:50:04;;;;;;;;;;;20.70;53.30;;;;;;5074379;28;1425;-64
2021/03/16 13:52:30;;;;;;;;;;;20.70;53.30;;;;;;5074380;28;1342;-64
2021/03/16 13:54:55;;;;;;;;;;;20.70;53.20;;;;;;5074166;28;1105;-64
2021/03/16 13:57:20;;;;;;;;;;;20.80;53.20;;;;;;5073949;28;1201;-63
2021/03/16 13:59:46;;;;;;;;;;;20.80;53.10;;;;;;5094553;28;1209;-63
2021/03/16 14:02:11;;;;;;;;;;;20.80;53.10;;;;;;5090558;28;1429;-63
2021/03/16 14:04:37;;;;;;;;;;;20.90;53.00;;;;;;5074059;28;1277;-63
2021/03/16 14:07:02;;;;;;;;;;;20.90;52.90;;;;;;5073645;28;1906;-64
2021/03/16 14:09:27;;;;;;;;;;;21.00;52.90;;;;;;5072152;28;1298;-65
2021/03/16 14:11:53;;;;;;;;;;;21.00;52.80;;;;;;5073537;28;1230;-62
2021/03/16 14:14:18;;;;;;;;;;;21.00;52.70;;;;;;5073640;28;1293;-63
2021/03/16 14:16:44;;;;;;;;;;;21.00;52.60;;;;;;5073869;28;1070;-64
2021/03/16 14:19:09;;;;;;;;;;;21.10;52.70;;;;;;5073257;28;1232;-63
2021/03/16 14:21:35;;;;;;;;;;;21.10;52.60;;;;;;5073694;28;1289;-63
2021/03/16 14:24:00;;;;;;;;;;;21.10;52.50;;;;;;5073646;28;1293;-63
2021/03/16 14:26:26;;;;;;;;;;;21.10;52.50;;;;;;5073625;28;1286;-63